Time;durP1;ratioP1;P1;durP2;ratioP2;P2;SDS_P1;SDS_P2;PMS_P1;PMS_P2;Temp;Humidity;BMP_temperature;BMP_pressure;BME280_temperature;BME280_humidity;BME280_pressure;Samples;Min_cycle;Max_cycle;Signal;HPM_P1;HPM_P2
2022/10/31 00:02:15;;;;;;;;;;;20.30;78.30;;;;;;5031774;28;20039;-67
2022/10/31 00:04:40;;;;;;;;;;;20.30;77.70;;;;;;5031875;28;19925;-67
2022/10/31 00:07:06;;;;;;;;;;;20.30;77.70;;;;;;5031879;28;20008;-67
2022/10/31 00:09:31;;;;;;;;;;;20.30;77.70;;;;;;5032394;28;19971;-67
2022/10/31 00:11:57;;;;;;;;;;;20.30;77.70;;;;;;5034583;28;20284;-67
2022/10/31 00:14:22;;;;;;;;;;;20.30;77.70;;;;;;5034137;28;19929;-67
2022/10/31 00:16:48;;;;;;;;;;;20.30;77.60;;;;;;5034019;28;19925;-66
2022/10/31 00:19:13;;;;;;;;;;;20.30;77.60;;;;;;5033767;28;19929;-67
2022/10/31 00:21:39;;;;;;;;;;;20.30;77.70;;;;;;5035518;28;19925;-67
2022/10/31 00:24:04;;;;;;;;;;;20.30;77.70;;;;;;5035922;28;20268;-67
2022/10/31 00:26:30;;;;;;;;;;;20.30;77.60;;;;;;5034924;28;19976;-67
2022/10/31 00:28:56;;;;;;;;;;;20.30;77.60;;;;;;5034771;28;19932;-67
2022/10/31 00:31:22;;;;;;;;;;;20.30;77.60;;;;;;5033969;28;19925;-67
2022/10/31 00:33:47;;;;;;;;;;;20.30;77.50;;;;;;5033897;28;19925;-67
2022/10/31 00:36:13;;;;;;;;;;;20.30;77.50;;;;;;5033907;28;20494;-67
2022/10/31 00:38:39;;;;;;;;;;;20.30;77.60;;;;;;5033857;28;19921;-67
2022/10/31 00:41:04;;;;;;;;;;;20.30;77.50;;;;;;5035435;28;20008;-67
2022/10/31 00:43:30;;;;;;;;;;;20.30;77.50;;;;;;5035131;28;19979;-67
2022/10/31 00:45:55;;;;;;;;;;;20.30;77.40;;;;;;5034594;28;19925;-67
2022/10/31 00:48:21;;;;;;;;;;;20.20;77.40;;;;;;5033871;28;19932;-67
2022/10/31 00:50:46;;;;;;;;;;;20.20;77.40;;;;;;5033979;28;19927;-67
2022/10/31 00:53:12;;;;;;;;;;;20.20;77.40;;;;;;5032923;28;19925;-67
2022/10/31 00:55:37;;;;;;;;;;;20.20;77.40;;;;;;5035203;28;19979;-67
2022/10/31 00:58:03;;;;;;;;;;;20.20;77.40;;;;;;5035170;28;19936;-67
2022/10/31 01:00:28;;;;;;;;;;;20.20;77.40;;;;;;5034480;28;19925;-66
2022/10/31 01:02:53;;;;;;;;;;;20.20;77.40;;;;;;5035450;28;19948;-67
2022/10/31 01:05:19;;;;;;;;;;;20.20;77.30;;;;;;5034598;28;19971;-67
2022/10/31 01:07:44;;;;;;;;;;;20.20;77.40;;;;;;5034627;28;19998;-66
2022/10/31 01:10:10;;;;;;;;;;;20.20;77.40;;;;;;5033567;28;20292;-66
2022/10/31 01:12:36;;;;;;;;;;;20.20;77.30;;;;;;5033333;28;19932;-66
2022/10/31 01:15:02;;;;;;;;;;;20.20;77.30;;;;;;5034237;28;19932;-66
2022/10/31 01:17:27;;;;;;;;;;;20.20;77.90;;;;;;5034109;28;19926;-66
2022/10/31 01:19:53;;;;;;;;;;;20.20;77.20;;;;;;5034419;28;19940;-66
2022/10/31 01:22:18;;;;;;;;;;;20.20;77.30;;;;;;5034138;28;20023;-66
2022/10/31 01:24:44;;;;;;;;;;;20.20;77.20;;;;;;5034775;28;19925;-66
2022/10/31 01:27:09;;;;;;;;;;;20.20;77.20;;;;;;5034038;28;20023;-67
2022/10/31 01:29:34;;;;;;;;;;;20.20;77.20;;;;;;5032948;28;20327;-66
2022/10/31 01:32:00;;;;;;;;;;;20.20;77.20;;;;;;5034724;28;20021;-67
2022/10/31 01:34:25;;;;;;;;;;;20.10;77.20;;;;;;5033825;28;19933;-67
2022/10/31 01:36:51;;;;;;;;;;;20.10;77.20;;;;;;5034166;28;19933;-67
2022/10/31 01:39:16;;;;;;;;;;;20.10;77.10;;;;;;5034349;28;20391;-67
2022/10/31 01:41:43;;;;;;;;;;;20.10;77.10;;;;;;5034103;28;19925;-67
2022/10/31 01:44:14;;;;;;;;;;;20.10;77.00;;;;;;5033345;28;19925;-67
2022/10/31 01:46:40;;;;;;;;;;;20.10;77.00;;;;;;5034221;28;20380;-67
2022/10/31 01:49:08;;;;;;;;;;;20.10;77.00;;;;;;5033333;28;19932;-67
2022/10/31 01:51:34;;;;;;;;;;;20.10;77.00;;;;;;5016328;28;19933;-67
2022/10/31 01:54:01;;;;;;;;;;;20.10;77.00;;;;;;5033037;28;19929;-67
2022/10/31 01:56:26;;;;;;;;;;;20.10;77.00;;;;;;5033365;28;19936;-67
2022/10/31 01:58:52;;;;;;;;;;;20.10;77.00;;;;;;5034075;28;19925;-66
2022/10/31 02:01:17;;;;;;;;;;;20.10;77.00;;;;;;5033529;28;20336;-66
2022/10/31 02:03:43;;;;;;;;;;;20.10;77.00;;;;;;5033643;28;20004;-67
2022/10/31 02:06:10;;;;;;;;;;;20.10;76.90;;;;;;5032525;28;19978;-67
2022/10/31 02:08:35;;;;;;;;;;;20.10;77.00;;;;;;5032249;28;20257;-66
2022/10/31 02:11:01;;;;;;;;;;;20.10;76.90;;;;;;5015674;28;20380;-66
2022/10/31 02:13:27;;;;;;;;;;;20.10;76.90;;;;;;5031747;28;19925;-67
2022/10/31 02:15:53;;;;;;;;;;;20.10;76.90;;;;;;5032483;28;20003;-67
2022/10/31 02:18:19;;;;;;;;;;;20.10;76.90;;;;;;5032738;28;19925;-67
2022/10/31 02:20:58;;;;;;;;;;;20.10;76.90;;;;;;5032321;28;19932;-67
2022/10/31 02:23:33;;;;;;;;;;;20.10;76.90;;;;;;5031837;28;20379;-67
2022/10/31 02:26:04;;;;;;;;;;;20.10;76.80;;;;;;5032016;28;19962;-67
2022/10/31 02:28:38;;;;;;;;;;;20.10;76.80;;;;;;5015328;28;19925;-67
2022/10/31 02:31:10;;;;;;;;;;;20.00;76.70;;;;;;5033272;28;20023;-67
2022/10/31 02:33:38;;;;;;;;;;;20.00;76.70;;;;;;5031819;28;19929;-67
2022/10/31 02:36:05;;;;;;;;;;;20.00;76.70;;;;;;5015582;28;19929;-67
2022/10/31 02:38:38;;;;;;;;;;;20.00;76.70;;;;;;5032544;28;19925;-67
2022/10/31 02:41:22;;;;;;;;;;;20.00;76.70;;;;;;5032219;28;19983;-67
2022/10/31 02:43:48;;;;;;;;;;;20.00;76.70;;;;;;5031494;28;19925;-67
2022/10/31 02:46:15;;;;;;;;;;;20.00;76.70;;;;;;5031466;28;19936;-67
2022/10/31 02:48:40;;;;;;;;;;;20.00;76.60;;;;;;5032140;28;19974;-67
2022/10/31 02:51:06;;;;;;;;;;;20.00;76.60;;;;;;5031293;28;19935;-67
2022/10/31 02:53:32;;;;;;;;;;;20.00;76.70;;;;;;5031172;28;19925;-67
2022/10/31 02:55:59;;;;;;;;;;;20.00;76.70;;;;;;5032893;28;20372;-67
2022/10/31 02:58:25;;;;;;;;;;;20.00;76.70;;;;;;5014744;28;19926;-66
2022/10/31 03:00:50;;;;;;;;;;;20.00;76.70;;;;;;5027090;28;19948;-66
2022/10/31 03:03:27;;;;;;;;;;;20.00;76.70;;;;;;5012889;28;20376;-67
2022/10/31 03:06:12;;;;;;;;;;;20.00;76.60;;;;;;5011614;28;19931;-67
2022/10/31 03:08:40;;;;;;;;;;;20.00;76.60;;;;;;5012889;28;20008;-66
2022/10/31 03:11:06;;;;;;;;;;;20.00;76.60;;;;;;5012723;28;20393;-66
2022/10/31 03:13:43;;;;;;;;;;;20.00;76.60;;;;;;5012377;28;20040;-66
2022/10/31 03:16:16;;;;;;;;;;;20.00;76.60;;;;;;5011744;28;19926;-66
2022/10/31 03:18:47;;;;;;;;;;;20.00;76.50;;;;;;5011423;28;19933;-67
2022/10/31 03:21:22;;;;;;;;;;;20.00;76.60;;;;;;5010710;28;19926;-67
2022/10/31 03:23:47;;;;;;;;;;;19.90;76.40;;;;;;5013110;28;19925;-67
2022/10/31 03:26:13;;;;;;;;;;;19.90;76.50;;;;;;5012246;28;20266;-67
2022/10/31 03:28:43;;;;;;;;;;;19.90;76.40;;;;;;5012465;28;19956;-66
2022/10/31 03:31:08;;;;;;;;;;;19.90;76.40;;;;;;5011409;28;19925;-66
2022/10/31 03:33:34;;;;;;;;;;;19.90;76.40;;;;;;4994980;28;20037;-67
2022/10/31 03:36:00;;;;;;;;;;;19.90;76.30;;;;;;4994648;28;19937;-67
2022/10/31 03:38:25;;;;;;;;;;;19.90;76.30;;;;;;5011366;28;19945;-66
2022/10/31 03:40:51;;;;;;;;;;;19.90;76.30;;;;;;5011650;28;20431;-66
2022/10/31 03:43:18;;;;;;;;;;;19.90;76.30;;;;;;5010230;28;19926;-66
2022/10/31 03:45:45;;;;;;;;;;;19.90;76.30;;;;;;5015216;28;19933;-66
2022/10/31 03:48:10;;;;;;;;;;;19.90;76.30;;;;;;5015426;28;19925;-67
2022/10/31 03:50:38;;;;;;;;;;;19.90;76.30;;;;;;5014808;28;19931;-66
2022/10/31 03:53:05;;;;;;;;;;;19.90;76.30;;;;;;5016642;28;20270;-67
2022/10/31 03:55:32;;;;;;;;;;;19.90;76.30;;;;;;5014027;28;19980;-67
2022/10/31 03:57:58;;;;;;;;;;;19.90;76.30;;;;;;5015182;28;19976;-66
2022/10/31 04:00:24;;;;;;;;;;;19.90;76.30;;;;;;5014857;28;19951;-66
2022/10/31 04:03:08;;;;;;;;;;;19.90;76.30;;;;;;5014777;28;20380;-66
2022/10/31 04:05:33;;;;;;;;;;;19.90;76.30;;;;;;5016347;28;20304;-66
2022/10/31 04:07:59;;;;;;;;;;;19.90;76.30;;;;;;5014934;28;19933;-66
2022/10/31 04:10:25;;;;;;;;;;;19.90;76.30;;;;;;4997585;28;19936;-66
2022/10/31 04:12:52;;;;;;;;;;;19.80;76.20;;;;;;5014816;28;19994;-66
2022/10/31 04:15:17;;;;;;;;;;;19.90;76.20;;;;;;5014316;28;19933;-66
2022/10/31 04:17:43;;;;;;;;;;;19.80;76.10;;;;;;5014424;28;20347;-66
2022/10/31 04:20:09;;;;;;;;;;;19.80;76.10;;;;;;5016137;28;19947;-66
2022/10/31 04:22:34;;;;;;;;;;;19.80;76.10;;;;;;5015775;28;19929;-66
2022/10/31 04:25:00;;;;;;;;;;;19.80;76.10;;;;;;5015433;28;19935;-66
2022/10/31 04:27:25;;;;;;;;;;;19.80;76.10;;;;;;5014593;28;19952;-66
2022/10/31 04:29:51;;;;;;;;;;;19.80;76.10;;;;;;5016150;28;19925;-66
2022/10/31 04:32:16;;;;;;;;;;;19.80;76.10;;;;;;5015098;28;20412;-66
2022/10/31 04:34:42;;;;;;;;;;;19.80;76.10;;;;;;5015828;28;19932;-66
2022/10/31 04:37:07;;;;;;;;;;;19.80;76.10;;;;;;5015105;28;19933;-66
2022/10/31 04:39:33;;;;;;;;;;;19.80;76.00;;;;;;5015259;28;19980;-66
2022/10/31 04:41:58;;;;;;;;;;;19.80;76.00;;;;;;5014583;28;19932;-67
2022/10/31 04:44:24;;;;;;;;;;;19.80;76.00;;;;;;5015042;28;19929;-66
2022/10/31 04:46:49;;;;;;;;;;;19.80;76.00;;;;;;5015127;28;19932;-66
2022/10/31 04:49:14;;;;;;;;;;;19.80;75.90;;;;;;5013761;28;20380;-66
2022/10/31 04:51:40;;;;;;;;;;;19.80;75.90;;;;;;5015179;28;19921;-66
2022/10/31 04:54:05;;;;;;;;;;;19.80;75.80;;;;;;5014773;28;19926;-66
2022/10/31 04:56:31;;;;;;;;;;;19.80;75.80;;;;;;5014948;28;19926;-67
2022/10/31 04:58:56;;;;;;;;;;;19.80;75.80;;;;;;5014953;28;19947;-66
2022/10/31 05:01:22;;;;;;;;;;;19.80;75.80;;;;;;5023592;28;19932;-66
2022/10/31 05:03:47;;;;;;;;;;;19.80;75.80;;;;;;5024950;28;20426;-66
2022/10/31 05:06:13;;;;;;;;;;;19.80;75.90;;;;;;5012646;28;20064;-66
2022/10/31 05:08:38;;;;;;;;;;;19.80;76.00;;;;;;5013572;28;19925;-66
2022/10/31 05:11:04;;;;;;;;;;;19.80;76.00;;;;;;5014725;28;20427;-66
2022/10/31 05:13:29;;;;;;;;;;;19.80;76.00;;;;;;5014242;28;19932;-66
2022/10/31 05:15:55;;;;;;;;;;;19.80;76.00;;;;;;5015312;28;19926;-66
2022/10/31 05:18:20;;;;;;;;;;;19.80;76.00;;;;;;5014471;28;19932;-66
2022/10/31 05:20:46;;;;;;;;;;;19.80;76.00;;;;;;5014624;28;19925;-66
2022/10/31 05:23:11;;;;;;;;;;;19.80;76.00;;;;;;5014762;28;19926;-66
2022/10/31 05:25:37;;;;;;;;;;;19.90;76.00;;;;;;5013137;28;19937;-66
2022/10/31 05:28:02;;;;;;;;;;;19.90;76.00;;;;;;5014620;28;19925;-66
2022/10/31 05:30:28;;;;;;;;;;;19.90;76.00;;;;;;5014709;28;19929;-66
2022/10/31 05:32:54;;;;;;;;;;;19.90;76.00;;;;;;5013352;28;19929;-67
2022/10/31 05:35:21;;;;;;;;;;;19.90;76.00;;;;;;5013970;28;19926;-66
2022/10/31 05:37:46;;;;;;;;;;;19.90;75.90;;;;;;5013480;28;20328;-66
2022/10/31 05:40:12;;;;;;;;;;;19.90;76.00;;;;;;5014134;28;20403;-66
2022/10/31 05:42:38;;;;;;;;;;;19.90;75.90;;;;;;5013042;28;19925;-66
2022/10/31 05:45:04;;;;;;;;;;;19.90;75.90;;;;;;5014815;28;19941;-66
2022/10/31 05:47:29;;;;;;;;;;;19.90;75.90;;;;;;5013313;28;19925;-66
2022/10/31 05:49:55;;;;;;;;;;;20.00;75.90;;;;;;5012619;28;20343;-66
2022/10/31 05:52:20;;;;;;;;;;;20.00;75.90;;;;;;5014242;28;19992;-67
2022/10/31 05:54:46;;;;;;;;;;;20.00;75.90;;;;;;5014460;28;19988;-66
2022/10/31 05:57:11;;;;;;;;;;;20.00;75.80;;;;;;5012587;28;19972;-66
2022/10/31 05:59:37;;;;;;;;;;;20.00;75.80;;;;;;5014127;28;19965;-66
2022/10/31 06:02:02;;;;;;;;;;;20.00;75.80;;;;;;5014246;28;20427;-67
2022/10/31 06:04:28;;;;;;;;;;;20.00;75.80;;;;;;5013703;28;19926;-67
2022/10/31 06:06:53;;;;;;;;;;;20.00;75.70;;;;;;5013133;28;19925;-66
2022/10/31 06:09:19;;;;;;;;;;;20.00;75.70;;;;;;5012133;28;20369;-66
2022/10/31 06:11:44;;;;;;;;;;;20.00;75.70;;;;;;5014462;28;19929;-66
2022/10/31 06:14:09;;;;;;;;;;;20.00;75.70;;;;;;5012302;28;19975;-66
2022/10/31 06:16:35;;;;;;;;;;;20.00;75.60;;;;;;5013223;28;19932;-66
2022/10/31 06:19:00;;;;;;;;;;;20.00;75.50;;;;;;5014028;28;20359;-67
2022/10/31 06:21:26;;;;;;;;;;;20.00;75.50;;;;;;5013449;28;19935;-66
2022/10/31 06:23:51;;;;;;;;;;;20.00;75.50;;;;;;5013355;28;20282;-66
2022/10/31 06:26:17;;;;;;;;;;;20.00;75.40;;;;;;5013716;28;19925;-66
2022/10/31 06:28:42;;;;;;;;;;;20.00;75.50;;;;;;5012499;28;20280;-66
2022/10/31 06:31:08;;;;;;;;;;;20.00;75.40;;;;;;5012893;28;19925;-66
2022/10/31 06:33:33;;;;;;;;;;;20.00;75.40;;;;;;5013831;28;19933;-66
2022/10/31 06:35:59;;;;;;;;;;;20.00;75.40;;;;;;5013138;28;19925;-65
2022/10/31 06:38:25;;;;;;;;;;;20.00;75.40;;;;;;5012917;28;20032;-67
2022/10/31 06:40:50;;;;;;;;;;;20.00;75.40;;;;;;5021709;28;19979;-65
2022/10/31 06:43:16;;;;;;;;;;;20.00;75.30;;;;;;5027338;28;20284;-66
2022/10/31 06:45:41;;;;;;;;;;;20.00;75.40;;;;;;5032915;28;19929;-66
2022/10/31 06:48:07;;;;;;;;;;;20.00;75.20;;;;;;5033070;28;20024;-65
2022/10/31 06:50:32;;;;;;;;;;;20.00;75.20;;;;;;5031784;28;19925;-66
2022/10/31 06:52:58;;;;;;;;;;;20.00;75.30;;;;;;5031683;28;20296;-66
2022/10/31 06:55:24;;;;;;;;;;;20.00;75.20;;;;;;5032495;28;19964;-67
2022/10/31 06:57:50;;;;;;;;;;;20.00;75.20;;;;;;5031504;28;19972;-65
2022/10/31 07:00:16;;;;;;;;;;;20.00;75.00;;;;;;5031224;28;20452;-66
2022/10/31 07:02:41;;;;;;;;;;;20.00;75.10;;;;;;5033242;28;20011;-66
2022/10/31 07:05:07;;;;;;;;;;;20.00;75.30;;;;;;5031866;28;20284;-66
2022/10/31 07:07:32;;;;;;;;;;;20.00;75.30;;;;;;5032480;28;19974;-66
2022/10/31 07:09:58;;;;;;;;;;;20.00;75.30;;;;;;5031801;28;19925;-66
2022/10/31 07:12:23;;;;;;;;;;;20.00;75.30;;;;;;5032842;28;19925;-65
2022/10/31 07:14:49;;;;;;;;;;;20.00;75.30;;;;;;5032404;28;20284;-65
2022/10/31 07:17:15;;;;;;;;;;;20.00;75.30;;;;;;5026073;28;20034;-65
2022/10/31 07:19:41;;;;;;;;;;;20.00;75.40;;;;;;5020582;28;19925;-65
2022/10/31 07:22:06;;;;;;;;;;;20.00;75.40;;;;;;5024244;28;19925;-64
2022/10/31 07:24:31;;;;;;;;;;;20.00;75.50;;;;;;5022075;28;19925;-65
2022/10/31 07:26:57;;;;;;;;;;;20.00;75.50;;;;;;5025728;28;19983;-65
2022/10/31 07:29:22;;;;;;;;;;;20.00;75.60;;;;;;5027355;28;19925;-63
2022/10/31 07:31:48;;;;;;;;;;;20.00;75.60;;;;;;5029586;28;19961;-65
2022/10/31 07:34:13;;;;;;;;;;;20.00;75.70;;;;;;5030675;28;19929;-65
2022/10/31 07:36:39;;;;;;;;;;;20.00;75.70;;;;;;5031253;28;19925;-65
2022/10/31 07:39:04;;;;;;;;;;;20.10;75.90;;;;;;5031416;28;19925;-64
2022/10/31 07:41:30;;;;;;;;;;;20.10;75.80;;;;;;5017739;28;19960;-65
2022/10/31 07:43:55;;;;;;;;;;;20.00;75.80;;;;;;5025196;28;19933;-66
2022/10/31 07:46:21;;;;;;;;;;;20.00;75.80;;;;;;5031951;28;20273;-65
2022/10/31 07:48:46;;;;;;;;;;;20.10;75.80;;;;;;5031893;28;19925;-66
2022/10/31 07:51:12;;;;;;;;;;;20.10;75.90;;;;;;5032259;28;20427;-66
2022/10/31 07:53:37;;;;;;;;;;;20.10;75.90;;;;;;5032129;28;19929;-67
2022/10/31 07:56:03;;;;;;;;;;;20.00;75.80;;;;;;5030725;28;20016;-67
2022/10/31 07:58:28;;;;;;;;;;;20.00;75.70;;;;;;5031051;28;19925;-65
2022/10/31 08:00:54;;;;;;;;;;;20.10;75.60;;;;;;5032042;28;20264;-64
2022/10/31 08:03:19;;;;;;;;;;;20.10;75.50;;;;;;5030094;28;19932;-65
2022/10/31 08:05:45;;;;;;;;;;;20.10;75.50;;;;;;5031303;28;19970;-66
2022/10/31 08:08:11;;;;;;;;;;;20.10;75.60;;;;;;5031865;28;19925;-66
2022/10/31 08:10:37;;;;;;;;;;;20.00;75.60;;;;;;5020989;28;20029;-66
2022/10/31 08:13:09;;;;;;;;;;;20.10;75.60;;;;;;5011100;28;19932;-66
2022/10/31 08:15:37;;;;;;;;;;;20.10;75.70;;;;;;5012824;28;20012;-66
2022/10/31 08:18:03;;;;;;;;;;;20.10;75.60;;;;;;5010593;28;19926;-66
2022/10/31 08:20:29;;;;;;;;;;;20.10;75.50;;;;;;5010577;28;20381;-66
2022/10/31 08:22:58;;;;;;;;;;;20.10;75.50;;;;;;5010569;28;19930;-66
2022/10/31 08:25:24;;;;;;;;;;;20.10;75.50;;;;;;5010679;28;20320;-66
2022/10/31 08:27:50;;;;;;;;;;;20.20;75.50;;;;;;5011879;28;19926;-66
2022/10/31 08:30:16;;;;;;;;;;;20.20;75.40;;;;;;5012735;28;19932;-66
2022/10/31 08:32:41;;;;;;;;;;;20.20;75.40;;;;;;5014729;28;19925;-66
2022/10/31 08:35:07;;;;;;;;;;;20.20;75.40;;;;;;5014015;28;19931;-66
2022/10/31 08:37:32;;;;;;;;;;;20.20;75.40;;;;;;5015319;28;19987;-66
2022/10/31 08:39:58;;;;;;;;;;;20.30;75.40;;;;;;5016008;28;19979;-66
2022/10/31 08:42:23;;;;;;;;;;;20.30;75.40;;;;;;5013946;28;19921;-66
2022/10/31 08:44:49;;;;;;;;;;;20.30;75.40;;;;;;5014177;28;19955;-66
2022/10/31 08:47:14;;;;;;;;;;;20.30;75.40;;;;;;5015631;28;20025;-66
2022/10/31 08:49:39;;;;;;;;;;;20.30;75.40;;;;;;5015467;28;20316;-66
2022/10/31 08:52:05;;;;;;;;;;;20.40;75.40;;;;;;5015015;28;20020;-66
2022/10/31 08:54:30;;;;;;;;;;;20.40;75.40;;;;;;5015469;28;19926;-66
2022/10/31 08:56:56;;;;;;;;;;;20.40;75.40;;;;;;5014071;28;19926;-66
2022/10/31 08:59:21;;;;;;;;;;;20.50;75.50;;;;;;5014737;28;19948;-66
2022/10/31 09:01:47;;;;;;;;;;;20.50;75.50;;;;;;5014077;28;19980;-66
2022/10/31 09:04:12;;;;;;;;;;;20.50;75.40;;;;;;5014535;28;19932;-67
2022/10/31 09:06:38;;;;;;;;;;;20.60;75.50;;;;;;5013484;28;19926;-66
2022/10/31 09:09:03;;;;;;;;;;;20.60;75.40;;;;;;5014234;28;19925;-66
2022/10/31 09:11:29;;;;;;;;;;;20.60;75.30;;;;;;5014876;28;20380;-66
2022/10/31 09:13:55;;;;;;;;;;;20.60;75.30;;;;;;5014782;28;19952;-66
2022/10/31 09:16:20;;;;;;;;;;;20.60;75.20;;;;;;5014529;28;20273;-66
2022/10/31 09:18:46;;;;;;;;;;;20.60;75.20;;;;;;5013572;28;19968;-65
2022/10/31 09:21:11;;;;;;;;;;;20.70;75.20;;;;;;5028075;28;19936;-66
2022/10/31 09:23:37;;;;;;;;;;;20.70;75.20;;;;;;5033185;28;19983;-66
2022/10/31 09:26:03;;;;;;;;;;;20.70;75.30;;;;;;5033551;28;20043;-66
2022/10/31 09:28:28;;;;;;;;;;;20.70;75.40;;;;;;5033133;28;19926;-66
2022/10/31 09:30:54;;;;;;;;;;;20.60;75.20;;;;;;5034325;28;19935;-66
2022/10/31 09:33:20;;;;;;;;;;;20.70;75.20;;;;;;5033860;28;19972;-66
2022/10/31 09:35:45;;;;;;;;;;;20.70;75.20;;;;;;5034469;28;19972;-67
2022/10/31 09:38:11;;;;;;;;;;;20.70;75.20;;;;;;5034231;28;20011;-67
2022/10/31 09:40:38;;;;;;;;;;;20.70;75.20;;;;;;5032749;28;19925;-67
2022/10/31 09:43:12;;;;;;;;;;;20.70;75.30;;;;;;5031801;28;19925;-67
2022/10/31 09:45:40;;;;;;;;;;;20.70;75.40;;;;;;5034054;28;19929;-67
2022/10/31 09:48:09;;;;;;;;;;;20.70;75.40;;;;;;5016096;28;19925;-67
2022/10/31 09:50:35;;;;;;;;;;;20.70;75.40;;;;;;5016662;28;19936;-67
2022/10/31 09:53:01;;;;;;;;;;;20.70;75.50;;;;;;5034117;28;19929;-67
2022/10/31 09:55:43;;;;;;;;;;;20.70;75.40;;;;;;5032021;28;19940;-67
2022/10/31 09:58:14;;;;;;;;;;;20.70;75.50;;;;;;5032559;28;19925;-67
2022/10/31 10:00:40;;;;;;;;;;;20.70;75.50;;;;;;5033364;28;19925;-67
2022/10/31 10:03:15;;;;;;;;;;;20.70;75.50;;;;;;5030999;28;20351;-67
2022/10/31 10:05:45;;;;;;;;;;;20.70;75.50;;;;;;5037253;28;19940;-70
2022/10/31 10:08:14;;;;;;;;;;;20.70;75.50;;;;;;5037633;28;19929;-67
2022/10/31 10:10:49;;;;;;;;;;;20.70;75.60;;;;;;5038183;28;20300;-67
2022/10/31 10:13:17;;;;;;;;;;;20.70;75.50;;;;;;5044055;28;19924;-67
2022/10/31 10:16:18;;;;;;;;;;;20.70;75.50;;;;;;5020438;28;20015;-67
2022/10/31 10:18:55;;;;;;;;;;;20.70;75.50;;;;;;5005688;28;19925;-67
2022/10/31 10:21:24;;;;;;;;;;;20.70;75.60;;;;;;5018634;28;20012;-70
2022/10/31 10:24:05;;;;;;;;;;;20.70;75.50;;;;;;5021774;28;19925;-65
2022/10/31 10:26:37;;;;;;;;;;;20.70;75.60;;;;;;5012248;28;20373;-70
2022/10/31 10:29:08;;;;;;;;;;;20.70;75.70;;;;;;5014060;28;19971;-71
2022/10/31 10:31:35;;;;;;;;;;;20.70;75.60;;;;;;4995587;28;19979;-71
2022/10/31 10:34:06;;;;;;;;;;;20.70;75.70;;;;;;5012569;28;19933;-74
2022/10/31 10:36:42;;;;;;;;;;;20.70;75.70;;;;;;5013249;28;20019;-65
2022/10/31 10:39:15;;;;;;;;;;;20.70;75.70;;;;;;5013333;28;19925;-66
2022/10/31 10:41:41;;;;;;;;;;;20.70;75.70;;;;;;5012480;28;19925;-68
2022/10/31 10:44:08;;;;;;;;;;;20.70;75.70;;;;;;5011649;28;20016;-62
2022/10/31 10:49:36;;;;;;;;;;;20.70;75.70;;;;;;4997703;28;20020;-66
2022/10/31 10:52:21;;;;;;;;;;;20.70;75.30;;;;;;5021897;28;19925;-65
2022/10/31 10:54:49;;;;;;;;;;;20.70;75.30;;;;;;5021622;28;19925;-67
2022/10/31 10:57:15;;;;;;;;;;;20.70;75.40;;;;;;5003913;28;19936;-66
2022/10/31 10:59:40;;;;;;;;;;;20.70;75.40;;;;;;5022947;28;19925;-66
2022/10/31 11:02:15;;;;;;;;;;;20.70;75.40;;;;;;5021082;28;19929;-66
2022/10/31 11:04:41;;;;;;;;;;;20.70;75.50;;;;;;5020434;28;19932;-66
2022/10/31 11:07:07;;;;;;;;;;;20.70;75.50;;;;;;5021022;28;19925;-67
2022/10/31 11:09:33;;;;;;;;;;;20.70;75.50;;;;;;5022276;28;19990;-64
2022/10/31 11:11:58;;;;;;;;;;;20.70;75.50;;;;;;5019982;28;19993;-66
2022/10/31 11:14:24;;;;;;;;;;;20.70;75.50;;;;;;5021075;28;19981;-65
2022/10/31 11:16:51;;;;;;;;;;;20.70;75.50;;;;;;5021784;28;19975;-66
2022/10/31 11:19:18;;;;;;;;;;;20.70;75.50;;;;;;5020739;28;19926;-66
2022/10/31 11:21:47;;;;;;;;;;;20.70;75.50;;;;;;5022444;28;19984;-67
2022/10/31 11:24:13;;;;;;;;;;;20.70;75.60;;;;;;5026547;28;19925;-66
2022/10/31 11:26:40;;;;;;;;;;;20.70;75.60;;;;;;5031118;28;19925;-67
2022/10/31 11:29:09;;;;;;;;;;;20.70;75.60;;;;;;5032785;28;19929;-67
2022/10/31 11:31:34;;;;;;;;;;;20.70;75.60;;;;;;5031182;28;19937;-67
2022/10/31 11:34:04;;;;;;;;;;;20.70;75.60;;;;;;5030872;28;19932;-67
2022/10/31 11:36:30;;;;;;;;;;;20.70;75.60;;;;;;5014401;28;19931;-67
2022/10/31 11:38:56;;;;;;;;;;;20.70;75.60;;;;;;5014857;28;20291;-67
2022/10/31 11:41:28;;;;;;;;;;;20.70;75.80;;;;;;5030682;28;20384;-67
2022/10/31 11:43:55;;;;;;;;;;;20.70;75.80;;;;;;5032463;28;19925;-67
2022/10/31 11:46:22;;;;;;;;;;;20.70;75.70;;;;;;5031143;28;20373;-67
2022/10/31 11:48:51;;;;;;;;;;;20.70;75.70;;;;;;5014288;28;19925;-67
2022/10/31 11:51:24;;;;;;;;;;;20.70;75.70;;;;;;5030956;28;19963;-67
2022/10/31 11:53:54;;;;;;;;;;;20.70;75.70;;;;;;5030595;28;20022;-67
2022/10/31 11:56:19;;;;;;;;;;;20.70;76.30;;;;;;5014361;28;19925;-67
2022/10/31 11:58:54;;;;;;;;;;;20.70;75.70;;;;;;5031065;28;20023;-67
2022/10/31 12:01:22;;;;;;;;;;;20.70;75.70;;;;;;5030551;28;19979;-67
2022/10/31 12:04:07;;;;;;;;;;;20.70;75.80;;;;;;5031478;28;19925;-67
2022/10/31 12:06:36;;;;;;;;;;;20.70;75.80;;;;;;5025869;28;19925;-68
2022/10/31 12:09:02;;;;;;;;;;;20.60;75.80;;;;;;5014487;28;19926;-69
2022/10/31 12:11:28;;;;;;;;;;;20.70;75.80;;;;;;5014512;28;19929;-70
2022/10/31 12:13:59;;;;;;;;;;;20.70;75.80;;;;;;5014849;28;19925;-67
2022/10/31 12:16:28;;;;;;;;;;;20.70;75.90;;;;;;5014269;28;20024;-68
2022/10/31 12:18:56;;;;;;;;;;;20.70;75.90;;;;;;5014477;28;20644;-67
2022/10/31 12:21:37;;;;;;;;;;;20.70;75.90;;;;;;5014607;28;20304;-68
2022/10/31 12:24:15;;;;;;;;;;;20.70;75.90;;;;;;5015849;28;20004;-68
2022/10/31 12:26:49;;;;;;;;;;;20.60;76.00;;;;;;5014640;28;20016;-69
2022/10/31 12:29:15;;;;;;;;;;;20.70;76.00;;;;;;5018899;28;19929;-69
2022/10/31 12:32:03;;;;;;;;;;;20.70;76.10;;;;;;5025521;28;20066;-68
2022/10/31 12:34:45;;;;;;;;;;;20.70;76.10;;;;;;5025044;28;20086;-69
2022/10/31 12:37:30;;;;;;;;;;;20.70;76.20;;;;;;5024718;28;19925;-69
2022/10/31 12:40:01;;;;;;;;;;;20.70;76.20;;;;;;5026234;28;19933;-69
2022/10/31 12:42:50;;;;;;;;;;;20.70;76.20;;;;;;5024511;28;19983;-70
2022/10/31 12:45:18;;;;;;;;;;;20.70;76.20;;;;;;5010989;28;19930;-69
2022/10/31 12:47:47;;;;;;;;;;;20.70;76.30;;;;;;5026245;28;19932;-68
2022/10/31 12:50:24;;;;;;;;;;;20.70;76.20;;;;;;5025078;28;19980;-69
2022/10/31 12:52:49;;;;;;;;;;;20.70;76.30;;;;;;5025756;28;20273;-69
2022/10/31 12:55:34;;;;;;;;;;;20.70;76.30;;;;;;5025020;28;20399;-69
2022/10/31 12:58:09;;;;;;;;;;;20.80;76.30;;;;;;5024940;28;19926;-68
2022/10/31 13:00:34;;;;;;;;;;;20.80;76.30;;;;;;5007157;28;20373;-69
2022/10/31 13:03:03;;;;;;;;;;;20.80;76.30;;;;;;5026094;28;19925;-69
2022/10/31 13:05:29;;;;;;;;;;;20.80;76.40;;;;;;5023808;28;19930;-70
2022/10/31 13:07:59;;;;;;;;;;;20.80;76.30;;;;;;5006351;28;19925;-70
2022/10/31 13:10:36;;;;;;;;;;;20.80;76.30;;;;;;5025692;28;20370;-69
2022/10/31 13:13:07;;;;;;;;;;;20.80;76.30;;;;;;5024202;28;19928;-69
2022/10/31 13:15:33;;;;;;;;;;;20.80;76.30;;;;;;5023375;28;19926;-69
2022/10/31 13:18:05;;;;;;;;;;;20.80;76.30;;;;;;5021966;28;19971;-68
2022/10/31 13:20:41;;;;;;;;;;;20.90;76.40;;;;;;5006166;28;20420;-66
2022/10/31 13:23:12;;;;;;;;;;;20.90;76.30;;;;;;5024664;28;20300;-68
2022/10/31 13:25:39;;;;;;;;;;;20.80;76.80;;;;;;5006096;28;19948;-68
2022/10/31 13:28:37;;;;;;;;;;;20.90;76.10;;;;;;5005799;28;19933;-69
2022/10/31 13:31:02;;;;;;;;;;;20.90;76.00;;;;;;5002515;28;20346;-67
2022/10/31 13:33:37;;;;;;;;;;;20.90;76.00;;;;;;5020874;28;19925;-66
2022/10/31 13:36:08;;;;;;;;;;;20.80;76.10;;;;;;5023929;28;19925;-67
2022/10/31 13:38:37;;;;;;;;;;;20.90;76.10;;;;;;5023563;28;19926;-68
2022/10/31 13:41:04;;;;;;;;;;;20.80;76.00;;;;;;5020342;28;19925;-67
2022/10/31 13:43:39;;;;;;;;;;;20.80;75.90;;;;;;5005915;28;20339;-68
2022/10/31 13:46:20;;;;;;;;;;;20.80;75.70;;;;;;5024000;28;20372;-68
2022/10/31 13:48:45;;;;;;;;;;;20.80;75.80;;;;;;5024034;28;19929;-68
2022/10/31 13:51:11;;;;;;;;;;;20.80;75.80;;;;;;5022707;28;19932;-68
2022/10/31 13:53:36;;;;;;;;;;;20.80;75.80;;;;;;5023010;28;19925;-68
2022/10/31 13:56:03;;;;;;;;;;;20.80;75.70;;;;;;5025154;28;19925;-68
2022/10/31 13:58:29;;;;;;;;;;;20.80;75.80;;;;;;5022827;28;19929;-67
2022/10/31 14:01:04;;;;;;;;;;;20.70;75.70;;;;;;5021583;28;20044;-67
2022/10/31 14:03:29;;;;;;;;;;;20.70;75.70;;;;;;5006784;28;20412;-67
2022/10/31 14:05:55;;;;;;;;;;;20.70;75.80;;;;;;5022815;28;19964;-68
2022/10/31 14:08:22;;;;;;;;;;;20.70;75.80;;;;;;5021964;28;19925;-68
2022/10/31 14:10:48;;;;;;;;;;;20.70;75.80;;;;;;5023216;28;19933;-68
2022/10/31 14:13:14;;;;;;;;;;;20.70;75.90;;;;;;5022648;28;19926;-66
2022/10/31 14:15:41;;;;;;;;;;;20.70;75.90;;;;;;5021891;28;19933;-66
2022/10/31 14:18:06;;;;;;;;;;;20.70;75.90;;;;;;5023569;28;19972;-66
2022/10/31 14:20:38;;;;;;;;;;;20.70;75.90;;;;;;5005988;28;19973;-67
2022/10/31 14:23:22;;;;;;;;;;;20.70;75.90;;;;;;5024053;28;19925;-67